createdAt,value
2018-10-02T00:00:11.531Z,2.27
2018-10-02T00:25:02.139Z,5.03
2018-10-02T00:27:49.586Z,1.70
2018-10-02T00:33:43.259Z,3.17
2018-10-02T00:36:30.861Z,2.77
2018-10-02T00:39:19.331Z,3.83
2018-10-02T00:42:09.984Z,8.03
2018-10-02T00:44:57.604Z,2.17
2018-10-02T00:47:54.475Z,1.30
2018-10-02T00:50:42.890Z,2.17
2018-10-02T00:56:37.332Z,2.17
2018-10-02T00:59:27.352Z,2.57
2018-10-02T01:02:15.944Z,5.87
2018-10-02T01:20:38.312Z,4.30
2018-10-02T01:29:57.650Z,5.35
2018-10-02T01:42:05.761Z,3.60
2018-10-02T01:44:55.619Z,5.37
2018-10-02T01:47:47.325Z,5.23
2018-10-02T01:50:36.222Z,5.47
2018-10-02T01:53:24.041Z,4.73
2018-10-02T02:02:27.642Z,6.77
2018-10-02T02:05:15.207Z,6.23
2018-10-02T02:08:02.790Z,4.93
2018-10-02T02:10:50.403Z,3.80
2018-10-02T02:13:37.562Z,2.73
2018-10-02T02:16:28.602Z,4.10
2018-10-02T02:37:55.415Z,4.23
2018-10-02T02:46:56.745Z,5.87
2018-10-02T02:49:47.160Z,4.77
2018-10-02T02:58:47.292Z,9.05
2018-10-02T03:20:14.317Z,6.32
2018-10-02T03:23:01.880Z,5.63
2018-10-02T03:25:49.968Z,6.27
2018-10-02T03:28:37.379Z,6.13
2018-10-02T03:31:25.761Z,9.70
2018-10-02T03:34:13.892Z,7.43
2018-10-02T03:58:45.091Z,7.67
2018-10-02T04:01:32.681Z,8.87
2018-10-02T04:04:21.090Z,7.83
2018-10-02T04:07:11.928Z,8.43
2018-10-02T04:13:05.814Z,10.73
2018-10-02T05:05:03.235Z,8.13
2018-10-02T05:11:05.551Z,8.10
2018-10-02T05:13:56.326Z,7.10
2018-10-02T06:44:29.209Z,8.90
2018-10-02T06:57:02.861Z,10.70
2018-10-02T07:06:04.233Z,10.10
2018-10-02T07:08:54.986Z,10.13
2018-10-02T07:11:46.295Z,8.97
2018-10-02T07:27:21.260Z,12.43
2018-10-02T07:30:10.071Z,8.52
2018-10-02T07:33:01.025Z,9.73
2018-10-02T07:35:49.152Z,8.53
2018-10-02T07:38:36.965Z,9.20
2018-10-02T07:44:31.059Z,6.50
2018-10-02T07:47:21.396Z,8.97
2018-10-02T07:50:09.726Z,9.00
2018-10-02T07:52:59.503Z,10.20
2018-10-02T08:14:27.398Z,7.12
2018-10-02T08:17:28.408Z,6.13
2018-10-02T08:26:46.900Z,9.75
2018-10-02T08:29:34.676Z,5.70
2018-10-02T08:32:24.553Z,6.23
2018-10-02T08:41:26.822Z,8.23
2018-10-02T08:47:24.304Z,8.00
2018-10-02T08:56:26.062Z,7.22
2018-10-02T09:02:28.010Z,7.32
2018-10-02T09:05:15.542Z,8.65
2018-10-02T09:14:25.439Z,6.22
2018-10-02T09:29:41.113Z,6.37
2018-10-02T09:55:24.094Z,10.75
2018-10-02T09:58:16.362Z,9.07
2018-10-02T10:01:06.021Z,12.02
2018-10-02T10:06:59.419Z,9.70
2018-10-02T10:09:46.711Z,7.30
2018-10-02T10:15:43.517Z,7.57
2018-10-02T10:18:33.567Z,8.48
2018-10-02T10:27:45.778Z,4.78
2018-10-02T10:30:42.942Z,7.22
2018-10-02T10:36:42.404Z,6.03
2018-10-02T10:39:29.846Z,4.97
2018-10-02T10:42:17.610Z,4.97
2018-10-02T10:54:31.941Z,4.05
2018-10-02T11:25:24.902Z,3.60
2018-10-02T11:28:12.747Z,5.37
2018-10-02T11:31:00.340Z,5.07
2018-10-02T11:43:25.647Z,4.57
2018-10-02T11:46:15.943Z,5.72
2018-10-02T11:55:17.412Z,4.72
2018-10-02T12:01:15.167Z,3.67
2018-10-02T12:10:17.485Z,7.22
2018-10-02T12:28:37.073Z,3.50
2018-10-02T12:31:28.290Z,2.30
2018-10-02T12:34:34.682Z,3.62
2018-10-02T12:37:24.338Z,2.58
2018-10-02T12:40:11.782Z,3.42
2018-10-02T12:45:48.578Z,1.98
2018-10-02T13:07:17.212Z,2.10
2018-10-02T13:10:04.760Z,3.33
2018-10-02T13:13:03.297Z,2.53
2018-10-02T13:15:50.901Z,1.30
2018-10-02T13:18:38.327Z,4.00
2018-10-02T13:21:25.890Z,1.77
2018-10-02T13:27:24.579Z,3.05
2018-10-02T13:30:15.262Z,2.20
2018-10-02T13:33:08.188Z,1.80
2018-10-02T13:36:02.571Z,1.50
2018-10-02T13:38:51.227Z,2.62
2018-10-02T13:41:38.449Z,1.25
2018-10-02T13:44:27.418Z,4.10
2018-10-02T13:47:15.264Z,2.85
2018-10-02T13:53:22.185Z,3.83
2018-10-02T13:56:09.664Z,3.97
2018-10-02T14:02:04.939Z,2.10
2018-10-02T14:04:59.649Z,1.80
2018-10-02T14:10:54.676Z,1.58
2018-10-02T14:13:44.086Z,1.10
2018-10-02T14:16:32.485Z,1.47
2018-10-02T14:19:19.940Z,2.33
2018-10-02T14:22:08.563Z,1.77
2018-10-02T14:25:12.315Z,3.87
2018-10-02T14:34:12.654Z,2.50
2018-10-02T14:37:00.500Z,1.60
2018-10-02T14:39:49.170Z,2.93
2018-10-02T14:45:43.239Z,2.67
2018-10-02T14:48:30.940Z,2.57
2018-10-02T14:51:18.133Z,2.00
2018-10-02T14:54:21.116Z,3.17
2018-10-02T14:57:08.633Z,1.33
2018-10-02T15:09:15.288Z,3.17
2018-10-02T15:12:02.487Z,2.90
2018-10-02T15:36:35.489Z,1.40
2018-10-02T15:39:22.581Z,1.23
2018-10-02T15:42:09.968Z,2.53
2018-10-02T15:44:57.180Z,3.33
2018-10-02T15:50:50.381Z,2.63
2018-10-02T16:09:10.646Z,0.87
2018-10-02T16:24:30.082Z,1.53
2018-10-02T16:27:17.259Z,1.00
2018-10-02T16:54:58.447Z,1.33
2018-10-02T16:57:45.981Z,0.57
2018-10-02T17:00:33.530Z,0.83
2018-10-02T17:03:20.749Z,3.27
2018-10-02T17:06:07.755Z,0.40
2018-10-02T17:12:01.132Z,0.70
2018-10-02T17:14:49.868Z,1.67
2018-10-02T17:17:37.730Z,1.47
2018-10-02T17:20:26.631Z,2.53
2018-10-02T17:23:13.583Z,2.40
2018-10-02T17:26:00.959Z,0.53
2018-10-02T17:28:48.825Z,1.40
2018-10-02T17:31:44.175Z,1.80
2018-10-02T17:34:32.757Z,1.73
2018-10-02T17:37:20.349Z,0.70
2018-10-02T17:40:08.493Z,0.87
2018-10-02T17:42:56.016Z,0.87
2018-10-02T17:45:44.458Z,2.00
2018-10-02T17:48:31.960Z,0.53
2018-10-02T17:51:19.210Z,1.33
2018-10-02T17:54:06.653Z,0.97
2018-10-02T17:56:57.814Z,1.10
2018-10-02T17:59:47.198Z,1.70
2018-10-02T18:02:35.553Z,0.82
2018-10-02T18:05:26.092Z,1.60
2018-10-02T18:08:13.436Z,0.65
2018-10-02T18:11:00.757Z,1.27
2018-10-02T18:13:59.793Z,0.70
2018-10-02T18:16:48.442Z,0.67
2018-10-02T18:25:58.027Z,0.70
2018-10-02T18:28:47.149Z,1.50
2018-10-02T18:31:36.840Z,0.73
2018-10-02T18:34:26.753Z,1.50
2018-10-02T18:37:13.970Z,0.90
2018-10-02T18:40:01.769Z,2.10
2018-10-02T18:42:50.871Z,2.07
2018-10-02T18:45:43.178Z,1.83
2018-10-02T18:48:35.851Z,1.65
2018-10-02T18:54:34.321Z,1.60
2018-10-02T18:57:26.179Z,1.93
2018-10-02T19:00:16.153Z,1.57
2018-10-02T19:03:08.851Z,2.67
2018-10-02T19:05:57.859Z,2.20
2018-10-02T19:12:07.803Z,2.27
2018-10-02T19:14:56.686Z,2.27
2018-10-02T19:17:50.263Z,3.37
2018-10-02T19:20:37.978Z,3.15
2018-10-02T19:23:25.971Z,2.63
2018-10-02T19:26:15.595Z,2.53
2018-10-02T19:29:04.155Z,2.67
2018-10-02T19:31:51.588Z,3.33
2018-10-02T19:34:44.387Z,3.00
2018-10-02T19:37:31.923Z,3.60
2018-10-02T19:40:19.867Z,3.13
2018-10-02T19:43:07.473Z,3.83
2018-10-02T19:45:54.754Z,3.33
2018-10-02T19:48:42.212Z,6.30
2018-10-02T19:51:29.945Z,3.80
2018-10-02T19:54:17.213Z,4.13
2018-10-02T19:57:05.405Z,3.50
2018-10-02T19:59:52.765Z,4.73
2018-10-02T20:02:40.656Z,7.05
2018-10-02T20:05:28.343Z,4.40
2018-10-02T20:08:16.262Z,5.83
2018-10-02T20:11:04.508Z,5.50
2018-10-02T20:13:52.717Z,7.80
2018-10-02T20:16:40.804Z,7.22
2018-10-02T20:19:28.739Z,5.70
2018-10-02T20:22:17.081Z,9.70
2018-10-02T20:25:05.039Z,8.50
2018-10-02T20:27:52.920Z,7.50
2018-10-02T20:30:41.154Z,5.10
2018-10-02T20:33:28.872Z,6.43
2018-10-02T20:36:19.196Z,6.18
2018-10-02T20:39:08.636Z,5.73
2018-10-02T20:41:56.391Z,6.03
2018-10-02T20:44:43.828Z,6.77
2018-10-02T20:47:33.080Z,4.70
2018-10-02T20:50:26.777Z,5.80
2018-10-02T20:53:17.480Z,5.00
2018-10-02T20:56:06.215Z,6.90
2018-10-02T20:58:53.949Z,7.30
2018-10-02T21:01:44.339Z,7.05
2018-10-02T21:04:36.894Z,6.73
2018-10-02T21:07:30.126Z,7.93
2018-10-02T21:10:18.055Z,8.37
2018-10-02T21:16:23.014Z,8.17
2018-10-02T21:19:13.868Z,6.13
2018-10-02T21:22:04.789Z,7.47
2018-10-02T21:24:52.777Z,6.10
2018-10-02T21:27:43.566Z,8.07
2018-10-02T21:33:34.784Z,9.87
2018-10-02T21:36:22.567Z,7.53
2018-10-02T21:39:10.448Z,8.20
2018-10-02T21:42:01.103Z,7.03
2018-10-02T21:44:49.556Z,10.93
2018-10-02T21:47:37.420Z,7.57
2018-10-02T21:50:25.524Z,11.17
2018-10-02T21:53:13.050Z,9.37
2018-10-02T21:56:01.169Z,8.50
2018-10-02T21:58:49.752Z,5.77
2018-10-02T22:01:40.519Z,7.47
2018-10-02T22:04:28.379Z,9.30
2018-10-02T22:07:16.128Z,7.77
2018-10-02T22:10:04.254Z,7.73
2018-10-02T22:12:52.307Z,8.33
2018-10-02T22:15:40.127Z,8.30
2018-10-02T22:18:29.147Z,7.50
2018-10-02T22:21:17.240Z,8.00
2018-10-02T22:24:08.602Z,9.03
2018-10-02T22:26:56.753Z,8.80
2018-10-02T22:32:56.794Z,8.03
2018-10-02T22:35:44.267Z,7.70
2018-10-02T22:38:32.841Z,9.53
2018-10-02T22:41:21.273Z,10.35
2018-10-02T22:44:08.454Z,6.23
2018-10-02T22:46:56.925Z,6.13
2018-10-02T22:49:44.591Z,7.03
2018-10-02T22:52:32.301Z,11.23
2018-10-02T22:55:20.423Z,9.03
2018-10-02T22:58:08.446Z,8.67
2018-10-02T23:00:56.206Z,9.73
2018-10-02T23:03:47.493Z,8.30
2018-10-02T23:06:35.459Z,7.90
2018-10-02T23:09:23.929Z,9.17
2018-10-02T23:12:12.012Z,9.67
2018-10-02T23:15:08.343Z,6.13
2018-10-02T23:17:56.186Z,8.83
2018-10-02T23:20:52.021Z,7.60
2018-10-02T23:23:40.384Z,7.80
2018-10-02T23:26:31.008Z,5.60
2018-10-02T23:29:18.963Z,6.47
2018-10-02T23:32:06.462Z,10.07
2018-10-02T23:34:54.287Z,10.73
2018-10-02T23:37:42.389Z,10.40
2018-10-02T23:40:30.485Z,10.80
2018-10-02T23:43:18.907Z,10.00
2018-10-02T23:46:07.417Z,9.30
2018-10-02T23:48:55.133Z,10.13
2018-10-02T23:51:42.980Z,8.97
2018-10-02T23:54:31.532Z,12.07
2018-10-02T23:57:19.659Z,8.30
